Time;durP1;ratioP1;P1;durP2;ratioP2;P2;SDS_P1;SDS_P2;PMS_P1;PMS_P2;Temp;Humidity;BMP_temperature;BMP_pressure;BME280_temperature;BME280_humidity;BME280_pressure;Samples;Min_cycle;Max_cycle;Signal;HPM_P1;HPM_P2
2022/12/17 13:07:26;;;;;;;11.55;5.20;;;-3275.00;82.70;;;;;;5046826;28;20079;-59
2022/12/17 13:09:55;;;;;;;10.38;5.28;;;-3275.10;82.60;;;;;;5049695;28;20045;-59
2022/12/17 13:12:28;;;;;;;14.02;6.30;;;-3275.10;82.60;;;;;;5047831;28;20053;-61
2022/12/17 13:15:00;;;;;;;15.40;6.70;;;-3275.10;82.60;;;;;;5049673;28;20040;-61
2022/12/17 13:17:32;;;;;;;11.68;5.95;;;-3275.10;82.60;;;;;;5045377;28;20040;-59
2022/12/17 13:20:20;;;;;;;14.00;6.50;;;-3275.10;82.60;;;;;;5048759;28;20132;-61
2022/12/17 13:22:52;;;;;;;12.90;6.40;;;-3275.10;82.70;;;;;;5045589;28;20483;-61
2022/12/17 13:25:20;;;;;;;12.68;5.95;;;-3275.10;82.70;;;;;;5046974;28;20048;-62
2022/12/17 13:27:49;;;;;;;15.88;6.40;;;-3275.10;82.70;;;;;;5047184;28;20044;-60
2022/12/17 13:30:30;;;;;;;12.52;5.82;;;-3275.10;82.80;;;;;;5045412;28;20407;-61
2022/12/17 13:33:18;;;;;;;15.52;6.50;;;-3275.10;82.90;;;;;;5048208;28;20045;-60
2022/12/17 13:35:56;;;;;;;13.63;6.15;;;-3275.10;83.00;;;;;;5049519;28;20102;-61
2022/12/17 13:38:31;;;;;;;13.80;6.50;;;-3275.20;82.90;;;;;;5049848;28;20045;-62
2022/12/17 13:41:07;;;;;;;11.77;6.13;;;-3275.10;82.80;;;;;;5058184;28;20044;-62
2022/12/17 13:43:41;;;;;;;14.57;6.60;;;-3275.20;82.90;;;;;;5064793;28;20037;-61
2022/12/17 13:46:20;;;;;;;11.77;5.88;;;-3275.20;82.90;;;;;;5065926;28;20051;-62
2022/12/17 13:48:56;;;;;;;15.02;6.68;;;-3275.20;82.80;;;;;;5067915;28;20067;-61
2022/12/17 13:51:26;;;;;;;11.90;5.43;;;-3275.20;82.80;;;;;;5066285;28;20076;-61
2022/12/17 13:53:55;;;;;;;11.77;6.50;;;-3275.20;82.80;;;;;;5069707;28;20048;-62
2022/12/17 13:56:24;;;;;;;13.48;6.43;;;-3275.20;82.80;;;;;;5064446;28;20048;-61
2022/12/17 13:58:53;;;;;;;14.20;5.95;;;-3275.20;82.80;;;;;;5068682;28;20407;-61
2022/12/17 14:01:20;;;;;;;13.38;6.60;;;-3275.20;82.80;;;;;;5067839;28;20059;-61
2022/12/17 14:03:53;;;;;;;15.55;6.72;;;-3275.20;82.80;;;;;;5068808;28;20048;-61
2022/12/17 14:06:21;;;;;;;11.63;5.55;;;-3275.20;82.80;;;;;;5063191;28;20048;-62
2022/12/17 14:08:52;;;;;;;17.63;6.95;;;-3275.20;82.80;;;;;;5066173;28;20102;-61
2022/12/17 14:14:13;;;;;;;12.88;6.05;;;-3275.20;82.70;;;;;;5068500;28;20052;-61
2022/12/17 14:16:41;;;;;;;12.45;6.25;;;-3275.20;82.70;;;;;;5063383;28;20049;-62
2022/12/17 14:19:10;;;;;;;13.52;6.40;;;-3275.20;82.80;;;;;;5069725;28;20052;-61
2022/12/17 14:21:39;;;;;;;14.05;6.38;;;-3275.20;82.90;;;;;;5067713;28;20106;-61
2022/12/17 14:24:12;;;;;;;12.07;6.38;;;-3275.20;82.80;;;;;;5063960;28;20131;-62
2022/12/17 14:26:48;;;;;;;16.73;5.88;;;-3275.20;82.80;;;;;;5067995;28;20039;-60
2022/12/17 14:29:21;;;;;;;14.95;6.93;;;-3275.20;82.70;;;;;;5066767;28;20458;-62
2022/12/17 14:31:52;;;;;;;13.10;6.35;;;-3275.30;82.80;;;;;;5067547;28;20051;-61
2022/12/17 14:34:19;;;;;;;;;;;-3275.20;82.80;;;;;;5071121;28;20049;-60
2022/12/17 14:36:47;;;;;;;16.15;6.80;;;-3275.20;82.70;;;;;;5070104;28;19928;-60
2022/12/17 14:39:22;;;;;;;15.57;6.82;;;-3275.20;82.80;;;;;;5051462;28;20047;-59
2022/12/17 14:44:34;;;;;;;17.30;7.82;;;-3275.20;82.80;;;;;;5047461;28;20548;-61
2022/12/17 14:47:16;;;;;;;14.48;7.13;;;-3275.20;82.80;;;;;;5049159;28;20037;-58
2022/12/17 14:49:53;;;;;;;14.43;7.13;;;-3275.20;82.80;;;;;;5050054;28;20052;-59
2022/12/17 14:52:26;;;;;;;15.10;7.28;;;-3275.10;82.90;;;;;;5046886;28;20061;-60
2022/12/17 14:54:55;;;;;;;16.70;7.13;;;-3275.10;82.90;;;;;;5047314;28;20080;-59
2022/12/17 14:57:22;;;;;;;15.35;6.65;;;-3275.10;82.80;;;;;;5048319;28;20052;-60
2022/12/17 14:59:51;;;;;;;14.93;7.30;;;-3275.10;82.90;;;;;;5049383;28;20064;-60
2022/12/17 15:02:24;;;;;;;16.60;6.00;;;-3275.10;83.00;;;;;;5049356;28;20049;-60
2022/12/17 15:04:56;;;;;;;14.18;6.15;;;-3275.10;83.00;;;;;;5048108;28;20483;-60
2022/12/17 15:07:26;;;;;;;10.80;5.30;;;-3275.00;83.30;;;;;;5043839;28;20127;-60
2022/12/17 15:09:59;;;;;;;12.18;4.95;;;-3275.00;83.40;;;;;;5046154;28;20037;-60
2022/12/17 15:12:33;;;;;;;13.70;6.07;;;-3275.00;83.30;;;;;;5047127;28;20134;-60
2022/12/17 15:15:03;;;;;;;10.73;5.38;;;-3275.00;83.30;;;;;;5044729;28;20144;-60
2022/12/17 15:17:30;;;;;;;9.95;5.13;;;-3274.90;83.40;;;;;;5049747;28;20052;-60
2022/12/17 15:19:57;;;;;;;13.40;5.57;;;-3274.90;83.40;;;;;;5049874;28;20064;-59
2022/12/17 15:22:24;;;;;;;11.32;6.00;;;-3274.90;83.30;;;;;;5049451;28;20052;-60
2022/12/17 15:24:51;;;;;;;12.55;5.05;;;-3274.90;83.30;;;;;;5049384;28;20076;-70
2022/12/17 15:27:19;;;;;;;16.15;5.88;;;-3274.90;83.30;;;;;;5047463;28;20147;-69
2022/12/17 15:29:46;;;;;;;9.80;4.72;;;-3274.80;83.30;;;;;;5048774;28;20060;-64
2022/12/17 15:32:18;;;;;;;9.57;4.85;;;-3274.90;83.40;;;;;;5043668;28;20049;-65
2022/12/17 15:34:45;;;;;;;10.32;4.60;;;-3274.80;83.50;;;;;;5049071;28;20061;-64
2022/12/17 15:37:12;;;;;;;10.70;4.85;;;-3274.70;83.40;;;;;;5049020;28;20059;-63
2022/12/17 15:39:39;;;;;;;10.60;5.10;;;-3274.70;83.40;;;;;;5050307;28;20517;-64
2022/12/17 15:44:52;;;;;;;7.30;3.97;;;-3274.70;83.40;;;;;;5067190;28;20523;-65
2022/12/17 15:47:19;;;;;;;9.93;4.05;;;-3274.70;83.30;;;;;;5067221;28;20478;-64
2022/12/17 15:49:46;;;;;;;8.43;3.90;;;-3274.60;83.20;;;;;;5067854;28;20048;-64
2022/12/17 15:52:14;;;;;;;10.48;4.40;;;-3274.60;83.20;;;;;;5067916;28;20040;-65
2022/12/17 15:54:41;;;;;;;9.23;4.35;;;-3274.60;83.20;;;;;;5068386;28;20046;-64
2022/12/17 15:57:08;;;;;;;8.85;3.83;;;-3274.60;83.10;;;;;;5045939;28;20044;-63
2022/12/17 15:59:35;;;;;;;11.27;4.78;;;-3274.60;83.10;;;;;;5063669;28;20102;-64
2022/12/17 16:02:03;;;;;;;11.30;4.65;;;-3274.60;83.00;;;;;;5059538;28;20048;-63
2022/12/17 16:04:30;;;;;;;21.00;9.75;;;-3274.50;83.00;;;;;;5064120;28;20052;-63
2022/12/17 16:06:57;;;;;;;48.88;20.10;;;-3274.50;83.00;;;;;;5065816;28;20405;-63
2022/12/17 16:09:25;;;;;;;58.05;26.27;;;-3274.40;83.00;;;;;;5068141;28;20048;-64
2022/12/17 16:11:53;;;;;;;47.92;24.10;;;-3274.40;83.10;;;;;;5068710;28;20046;-64
2022/12/17 16:14:21;;;;;;;40.10;22.20;;;-3274.40;83.10;;;;;;5067606;28;20055;-63
2022/12/17 16:16:48;;;;;;;31.25;17.63;;;-3274.30;83.10;;;;;;5069170;28;20506;-64
2022/12/17 16:19:16;;;;;;;27.48;16.15;;;-3274.30;83.10;;;;;;5065314;28;20059;-64
2022/12/17 16:21:43;;;;;;;26.20;14.93;;;-3274.20;83.00;;;;;;5064262;28;20052;-63
2022/12/17 16:24:10;;;;;;;20.90;12.48;;;-3274.30;83.00;;;;;;5068562;28;20040;-64
2022/12/17 16:26:38;;;;;;;16.85;11.18;;;-3274.30;82.90;;;;;;5068280;28;20044;-63
2022/12/17 16:29:05;;;;;;;17.75;9.57;;;-3274.20;82.80;;;;;;5065438;28;20525;-64
2022/12/17 16:31:32;;;;;;;22.10;10.32;;;-3274.20;82.70;;;;;;5063146;28;20513;-64
2022/12/17 16:33:59;;;;;;;22.17;9.95;;;-3274.20;82.60;;;;;;5066766;28;20040;-64
2022/12/17 16:36:27;;;;;;;16.00;7.45;;;-3274.10;82.70;;;;;;5062885;28;20045;-67
2022/12/17 16:38:55;;;;;;;16.75;7.43;;;-3274.10;82.70;;;;;;5067626;28;20036;-64
2022/12/17 16:41:22;;;;;;;13.35;6.43;;;-3274.10;82.60;;;;;;5064703;28;20394;-63
2022/12/17 16:43:50;;;;;;;12.85;6.15;;;-3274.10;82.70;;;;;;5062698;28;20076;-63
2022/12/17 16:46:28;;;;;;;11.30;5.80;;;-3274.00;82.50;;;;;;5067376;28;20044;-64
2022/12/17 16:48:56;;;;;;;11.07;5.25;;;-3273.90;82.50;;;;;;5068994;28;20102;-63
2022/12/17 16:51:25;;;;;;;12.43;5.50;;;-3273.90;82.40;;;;;;5063837;28;20071;-64
2022/12/17 16:53:53;;;;;;;12.98;6.00;;;-3273.90;82.40;;;;;;5067471;28;20044;-63
2022/12/17 16:56:21;;;;;;;12.82;5.82;;;-3273.80;82.30;;;;;;5065855;28;20049;-63
2022/12/17 16:58:49;;;;;;;9.27;5.03;;;-3273.90;82.30;;;;;;5065769;28;20048;-63
2022/12/17 17:01:19;;;;;;;10.18;5.25;;;-3273.80;82.20;;;;;;5066201;28;20040;-64
2022/12/17 17:03:46;;;;;;;9.52;5.22;;;-3273.80;82.30;;;;;;5067016;28;20059;-64
2022/12/17 17:06:13;;;;;;;11.32;4.72;;;-3273.80;82.20;;;;;;5064614;28;20048;-64
2022/12/17 17:08:40;;;;;;;9.75;4.28;;;-3273.80;82.20;;;;;;5067444;28;20052;-64
2022/12/17 17:11:11;;;;;;;9.73;4.90;;;-3273.70;82.00;;;;;;5065604;28;20059;-64
2022/12/17 17:13:38;;;;;;;9.85;4.57;;;-3273.70;82.00;;;;;;5064673;28;20045;-64
2022/12/17 17:16:06;;;;;;;8.85;4.55;;;-3273.70;81.90;;;;;;5061405;28;20051;-64
2022/12/17 17:18:34;;;;;;;8.23;4.25;;;-3273.70;81.80;;;;;;5064922;28;20470;-63
2022/12/17 17:21:26;;;;;;;11.20;4.80;;;-3273.70;81.80;;;;;;5048386;28;20052;-64
2022/12/17 17:23:57;;;;;;;9.65;4.03;;;-3273.60;81.80;;;;;;5061508;28;20053;-62
2022/12/17 17:26:25;;;;;;;9.75;4.18;;;-3273.60;81.70;;;;;;5066841;28;20041;-63
2022/12/17 17:28:53;;;;;;;11.23;4.20;;;-3273.50;81.70;;;;;;5065923;28;20040;-64
2022/12/17 17:31:20;;;;;;;9.57;4.10;;;-3273.50;81.70;;;;;;5066413;28;20501;-63
2022/12/17 17:33:48;;;;;;;8.05;4.45;;;-3273.50;81.60;;;;;;5070173;28;20083;-64
2022/12/17 17:36:18;;;;;;;7.60;3.70;;;-3273.40;81.60;;;;;;5071517;28;20067;-62
2022/12/17 17:38:46;;;;;;;8.65;3.95;;;-3273.40;81.60;;;;;;5068216;28;20045;-61
2022/12/17 17:41:14;;;;;;;9.93;4.55;;;-3273.40;81.60;;;;;;5070502;28;20091;-61
2022/12/17 17:43:43;;;;;;;10.38;5.20;;;-3273.40;81.40;;;;;;5069912;28;20047;-61
2022/12/17 17:46:11;;;;;;;13.10;5.13;;;-3273.30;81.40;;;;;;5068308;28;20059;-60
2022/12/17 17:48:38;;;;;;;13.30;5.38;;;-3273.30;81.40;;;;;;5070860;28;20051;-62
2022/12/17 17:51:08;;;;;;;15.00;6.00;;;-3273.30;81.30;;;;;;5071590;28;20052;-61
2022/12/17 17:53:35;;;;;;;12.85;5.65;;;-3273.20;81.20;;;;;;5068363;28;20506;-62
2022/12/17 17:56:03;;;;;;;13.48;6.25;;;-3273.20;81.30;;;;;;5070146;28;20041;-62
2022/12/17 17:58:30;;;;;;;13.27;6.80;;;-3273.20;81.30;;;;;;5068592;28;20433;-61
2022/12/17 18:00:59;;;;;;;15.65;7.85;;;-3273.20;81.20;;;;;;5069239;28;20501;-62
2022/12/17 18:03:31;;;;;;;17.73;7.97;;;-3273.20;81.20;;;;;;5069764;28;20140;-62
2022/12/17 18:06:01;;;;;;;20.23;9.05;;;-3273.20;81.00;;;;;;5070467;28;20040;-62
2022/12/17 18:08:29;;;;;;;19.50;8.77;;;-3273.10;81.00;;;;;;5069012;28;20058;-62
2022/12/17 18:10:56;;;;;;;18.75;9.48;;;-3273.10;81.10;;;;;;5067633;28;20067;-62
2022/12/17 18:16:10;;;;;;;18.77;8.35;;;-3273.00;80.90;;;;;;5067646;28;20490;-63
2022/12/17 18:18:37;;;;;;;18.40;8.25;;;-3273.00;80.90;;;;;;5068759;28;20048;-62
2022/12/17 18:21:06;;;;;;;16.55;8.35;;;-3273.00;81.00;;;;;;5069431;28;20151;-69
2022/12/17 18:23:33;;;;;;;14.23;6.93;;;-3273.00;80.90;;;;;;5069487;28;20048;-71
2022/12/17 18:26:09;;;;;;;12.90;6.65;;;-3272.90;80.90;;;;;;5064760;28;20053;-64
2022/12/17 18:28:36;;;;;;;12.05;5.50;;;-3272.90;81.00;;;;;;5066121;28;20051;-66
2022/12/17 18:31:15;;;;;;;11.13;4.60;;;-3272.90;80.90;;;;;;5068729;28;20098;-65
2022/12/17 18:33:44;;;;;;;11.38;4.88;;;-3272.90;80.70;;;;;;5062697;28;20048;-64
2022/12/17 18:36:13;;;;;;;11.38;4.47;;;-3272.90;80.70;;;;;;5065396;28;20048;-64
2022/12/17 18:38:40;;;;;;;11.23;5.22;;;-3272.80;80.70;;;;;;5066211;28;20053;-65
2022/12/17 18:43:22;;;;;;;16.85;5.65;;;-3272.80;80.70;;;;;;5067405;28;20052;-62
2022/12/17 18:43:56;;;;;;;13.27;5.97;;;-3272.80;80.80;;;;;;5067887;28;20123;-62
2022/12/17 18:46:25;;;;;;;13.38;5.43;;;-3272.70;80.70;;;;;;5069340;28;20094;-61
2022/12/17 18:48:52;;;;;;;13.82;6.03;;;-3272.70;80.80;;;;;;5069486;28;20064;-61
2022/12/17 18:51:20;;;;;;;12.93;5.30;;;-3272.70;80.80;;;;;;5069169;28;20123;-59
2022/12/17 18:53:47;;;;;;;13.57;6.40;;;-3272.70;80.60;;;;;;5064830;28;20051;-61
2022/12/17 18:56:15;;;;;;;13.57;6.70;;;-3272.70;80.60;;;;;;5070651;28;20044;-60
2022/12/17 18:58:42;;;;;;;19.63;7.97;;;-3272.60;80.60;;;;;;5070631;28;20116;-60
2022/12/17 19:01:18;;;;;;;22.30;8.65;;;-3272.60;80.60;;;;;;5069641;28;20052;-62
2022/12/17 19:03:46;;;;;;;22.52;7.85;;;-3272.60;80.60;;;;;;5069737;28;20056;-61
2022/12/17 19:06:13;;;;;;;22.98;9.32;;;-3272.60;80.60;;;;;;5070648;28;20482;-62
2022/12/17 19:08:40;;;;;;;23.83;10.20;;;-3272.60;80.60;;;;;;5065094;28;20542;-62
2022/12/17 19:11:18;;;;;;;28.65;11.98;;;-3272.60;80.50;;;;;;5069669;28;20474;-62
2022/12/17 19:13:45;;;;;;;26.50;12.93;;;-3272.50;80.60;;;;;;5068806;28;20040;-62
2022/12/17 19:16:15;;;;;;;28.52;12.98;;;-3272.50;80.60;;;;;;5069856;28;20044;-62
2022/12/17 19:18:42;;;;;;;24.30;11.88;;;-3272.50;80.60;;;;;;5068184;28;20055;-60
2022/12/17 19:21:13;;;;;;;22.55;11.20;;;-3272.60;80.60;;;;;;5067992;28;20131;-60
2022/12/17 19:23:40;;;;;;;25.40;11.10;;;-3272.50;80.50;;;;;;5068275;28;20052;-61
2022/12/17 19:26:10;;;;;;;19.40;9.57;;;-3272.50;80.40;;;;;;5069479;28;20051;-61
2022/12/17 19:28:39;;;;;;;22.98;10.00;;;-3272.40;80.40;;;;;;5067760;28;20072;-61
2022/12/17 19:31:06;;;;;;;23.42;11.38;;;-3272.40;80.50;;;;;;5069971;28;20056;-61
2022/12/17 19:33:33;;;;;;;22.02;11.85;;;-3272.40;80.50;;;;;;5069195;28;20048;-62
2022/12/17 19:36:04;;;;;;;27.25;12.18;;;-3272.40;80.50;;;;;;5069482;28;20480;-61
2022/12/17 19:38:32;;;;;;;;;;;-3272.30;80.50;;;;;;5064695;28;20534;-61
2022/12/17 19:41:04;;;;;;;23.48;11.07;;;-3272.30;80.70;;;;;;5060346;28;20023;-61
2022/12/17 19:43:32;;;;;;;19.45;10.60;;;-3272.30;80.40;;;;;;5056244;28;20040;-61
2022/12/17 19:46:04;;;;;;;20.42;9.32;;;-3272.30;80.30;;;;;;5038270;28;20071;-61
2022/12/17 19:48:32;;;;;;;18.33;9.65;;;-3272.30;80.40;;;;;;5055568;28;20060;-61
2022/12/17 19:50:59;;;;;;;22.00;10.07;;;-3272.30;80.40;;;;;;5057385;28;20079;-61
2022/12/17 19:53:27;;;;;;;22.42;9.05;;;-3272.30;80.50;;;;;;5054291;28;20075;-62
2022/12/17 19:55:56;;;;;;;19.15;8.90;;;-3272.30;80.60;;;;;;5057483;28;20600;-61
2022/12/17 19:58:24;;;;;;;18.13;7.82;;;-3272.20;80.50;;;;;;5056836;28;20068;-61
2022/12/17 20:00:51;;;;;;;17.23;7.47;;;-3272.30;80.70;;;;;;5056956;28;20040;-61
2022/12/17 20:03:18;;;;;;;14.23;7.15;;;-3272.30;80.60;;;;;;5056664;28;20135;-61
2022/12/17 20:05:46;;;;;;;13.95;7.05;;;-3272.30;80.70;;;;;;5056579;28;20052;-70
2022/12/17 20:08:14;;;;;;;15.20;7.15;;;-3272.20;80.90;;;;;;5057304;28;20052;-67
2022/12/17 20:10:41;;;;;;;16.80;6.97;;;-3272.30;81.00;;;;;;5055787;28;20484;-67
2022/12/17 20:13:09;;;;;;;14.75;7.28;;;-3272.30;81.00;;;;;;5056619;28;20392;-69
2022/12/17 20:15:36;;;;;;;16.70;7.97;;;-3272.30;80.90;;;;;;5056394;28;20048;-69
2022/12/17 20:18:04;;;;;;;15.85;8.40;;;-3272.20;80.90;;;;;;5036645;28;20044;-67
2022/12/17 20:20:31;;;;;;;15.88;8.05;;;-3272.30;80.90;;;;;;5056397;28;20679;-68
2022/12/17 20:22:57;;;;;;;15.95;7.80;;;-3272.20;80.90;;;;;;5057365;28;20049;-67
2022/12/17 20:25:25;;;;;;;17.23;7.57;;;-3272.30;80.80;;;;;;5054118;28;20049;-64
2022/12/17 20:27:52;;;;;;;15.63;7.78;;;-3272.30;80.60;;;;;;5054330;28;20136;-64
2022/12/17 20:30:22;;;;;;;15.73;8.00;;;-3272.20;80.50;;;;;;5057770;28;20052;-71
2022/12/17 20:32:52;;;;;;;15.68;7.95;;;-3272.10;80.50;;;;;;5055006;28;20095;-71
2022/12/17 20:35:19;;;;;;;17.85;7.78;;;-3272.10;80.50;;;;;;5056427;28;20049;-71
2022/12/17 20:37:46;;;;;;;16.73;8.70;;;-3272.10;80.50;;;;;;5050787;28;20084;-70
2022/12/17 20:40:13;;;;;;;18.77;8.05;;;-3272.10;80.40;;;;;;5041352;28;20390;-71
2022/12/17 20:42:40;;;;;;;19.92;7.80;;;-3272.10;80.20;;;;;;5055675;28;20056;-71
2022/12/17 20:45:07;;;;;;;20.38;8.90;;;-3272.00;80.20;;;;;;5055961;28;20056;-62
2022/12/17 20:47:36;;;;;;;13.52;7.03;;;-3271.90;80.10;;;;;;5055658;28;20051;-60
2022/12/17 20:50:03;;;;;;;15.98;7.90;;;-3272.00;80.10;;;;;;5057370;28;20049;-61
2022/12/17 20:52:31;;;;;;;16.33;8.20;;;-3271.90;80.00;;;;;;5053489;28;20049;-62
2022/12/17 20:54:58;;;;;;;13.90;6.82;;;-3271.90;79.90;;;;;;5054873;28;20045;-62
2022/12/17 20:57:25;;;;;;;15.73;7.20;;;-3271.90;79.90;;;;;;5047922;28;20773;-61
2022/12/17 20:59:52;;;;;;;14.43;7.28;;;-3271.80;79.80;;;;;;5047498;28;20506;-61
2022/12/17 21:02:19;;;;;;;15.85;7.63;;;-3271.90;79.80;;;;;;5053220;28;20063;-60
2022/12/17 21:04:48;;;;;;;16.80;7.93;;;-3271.90;79.80;;;;;;5048468;28;20059;-62
2022/12/17 21:07:15;;;;;;;15.38;7.35;;;-3271.80;79.70;;;;;;5055020;28;20045;-62
2022/12/17 21:09:42;;;;;;;20.27;8.07;;;-3271.90;79.70;;;;;;5058763;28;20052;-62
2022/12/17 21:12:11;;;;;;;22.05;8.82;;;-3271.80;79.60;;;;;;5053857;28;20068;-61
2022/12/17 21:14:38;;;;;;;23.40;8.95;;;-3271.70;79.60;;;;;;5031984;28;20051;-61
2022/12/17 21:17:05;;;;;;;19.90;9.25;;;-3271.70;79.80;;;;;;5038514;28;20379;-64
2022/12/17 21:19:32;;;;;;;21.77;9.70;;;-3271.70;79.70;;;;;;5052612;28;20061;-64
2022/12/17 21:22:00;;;;;;;18.80;8.43;;;-3271.60;79.80;;;;;;5047879;28;20051;-64
2022/12/17 21:24:28;;;;;;;20.50;9.20;;;-3271.60;79.80;;;;;;5053529;28;20045;-64
2022/12/17 21:26:55;;;;;;;19.80;9.13;;;-3271.70;79.50;;;;;;5055467;28;20052;-63
2022/12/17 21:29:22;;;;;;;19.17;8.77;;;-3271.60;79.60;;;;;;5050748;28;20055;-64
2022/12/17 21:31:51;;;;;;;20.60;9.25;;;-3271.60;79.60;;;;;;5048165;28;20070;-64
2022/12/17 21:34:21;;;;;;;20.52;8.60;;;-3271.60;79.40;;;;;;5052471;28;20399;-62
2022/12/17 21:36:48;;;;;;;22.65;9.07;;;-3271.60;79.50;;;;;;5052039;28;20057;-65
2022/12/17 21:39:17;;;;;;;18.35;8.32;;;-3271.60;79.50;;;;;;5055598;28;20784;-65
2022/12/17 21:44:29;;;;;;;19.17;9.27;;;-3271.60;79.50;;;;;;5052164;28;20444;-64
2022/12/17 21:46:56;;;;;;;19.73;9.65;;;-3271.60;79.40;;;;;;5057316;28;20044;-65
2022/12/17 21:49:23;;;;;;;17.40;10.27;;;-3271.50;79.60;;;;;;5054008;28;20087;-65
2022/12/17 21:51:50;;;;;;;18.85;9.32;;;-3271.50;79.70;;;;;;5056311;28;20148;-64
2022/12/17 21:54:18;;;;;;;18.92;9.43;;;-3271.50;79.70;;;;;;5055342;28;20185;-64
2022/12/17 21:56:45;;;;;;;19.08;9.07;;;-3271.50;79.50;;;;;;5053881;28;20064;-65
2022/12/17 21:59:12;;;;;;;18.40;9.48;;;-3271.50;79.30;;;;;;5055962;28;20068;-65
2022/12/17 22:01:39;;;;;;;19.45;7.88;;;-3271.40;79.40;;;;;;5052542;28;20074;-65
2022/12/17 22:04:06;;;;;;;17.63;8.30;;;-3271.40;79.30;;;;;;5034609;28;20084;-65
2022/12/17 22:06:37;;;;;;;19.90;8.57;;;-3271.40;79.40;;;;;;5050950;28;20094;-65
2022/12/17 22:09:05;;;;;;;20.30;8.90;;;-3271.40;79.50;;;;;;5053674;28;20041;-64
2022/12/17 22:11:35;;;;;;;20.55;9.27;;;-3271.40;79.50;;;;;;5049610;28;20068;-66
2022/12/17 22:14:01;;;;;;;17.38;8.82;;;-3271.50;79.60;;;;;;5056880;28;20132;-65
2022/12/17 22:16:33;;;;;;;18.27;9.32;;;-3271.50;79.60;;;;;;5054595;28;20076;-66
2022/12/17 22:19:06;;;;;;;19.90;9.13;;;-3271.50;79.60;;;;;;5051218;28;20048;-66
2022/12/17 22:21:34;;;;;;;19.85;9.23;;;-3271.50;79.70;;;;;;5016459;28;20126;-65
2022/12/17 22:24:02;;;;;;;21.92;10.02;;;-3271.50;79.70;;;;;;5057383;28;20049;-65
2022/12/17 22:26:29;;;;;;;18.05;9.18;;;-3271.50;79.70;;;;;;5053302;28;20045;-64
2022/12/17 22:28:58;;;;;;;17.48;9.55;;;-3271.50;79.50;;;;;;5049124;28;21446;-65
2022/12/17 22:34:12;;;;;;;17.42;8.98;;;-3271.40;79.50;;;;;;5057692;28;20044;-62
2022/12/17 22:36:40;;;;;;;20.33;9.13;;;-3271.50;79.40;;;;;;5023465;28;20551;-62
2022/12/17 22:39:09;;;;;;;19.63;9.15;;;-3271.40;79.40;;;;;;5054183;28;20475;-62
2022/12/17 22:44:22;;;;;;;16.98;7.90;;;-3271.30;79.30;;;;;;5068522;28;20088;-71
2022/12/17 22:46:49;;;;;;;18.73;8.40;;;-3271.30;79.20;;;;;;5063188;28;20055;-72
2022/12/17 22:49:16;;;;;;;19.88;8.52;;;-3271.30;79.30;;;;;;5051588;28;20388;-71
2022/12/17 22:51:44;;;;;;;20.17;9.52;;;-3271.20;79.30;;;;;;5069374;28;20411;-71
2022/12/17 22:54:12;;;;;;;18.35;9.23;;;-3271.10;79.60;;;;;;5069304;28;20044;-72
2022/12/17 22:56:41;;;;;;;21.45;9.20;;;-3271.10;79.50;;;;;;5069784;28;20063;-71
2022/12/17 22:59:08;;;;;;;20.83;9.85;;;-3271.00;79.90;;;;;;5070291;28;20040;-72
2022/12/17 23:01:38;;;;;;;19.65;9.10;;;-3271.00;80.00;;;;;;5069520;28;20056;-72
2022/12/17 23:04:05;;;;;;;21.40;10.32;;;-3271.10;79.90;;;;;;5068208;28;20059;-71
2022/12/17 23:06:32;;;;;;;20.70;9.68;;;-3271.10;79.70;;;;;;5065496;28;20044;-72
2022/12/17 23:08:59;;;;;;;20.27;9.57;;;-3271.10;79.60;;;;;;5067404;28;20041;-71
2022/12/17 23:11:27;;;;;;;19.17;9.48;;;-3271.20;79.50;;;;;;5066735;28;20055;-71
2022/12/17 23:13:55;;;;;;;21.40;9.85;;;-3271.20;79.40;;;;;;5068217;28;20045;-72
2022/12/17 23:16:22;;;;;;;20.92;9.75;;;-3271.10;79.50;;;;;;5062268;28;20098;-71
2022/12/17 23:18:51;;;;;;;22.48;9.90;;;-3271.10;79.60;;;;;;5065218;28;20052;-71
2022/12/17 23:21:20;;;;;;;18.77;9.45;;;-3271.10;79.60;;;;;;5066315;28;20056;-65
2022/12/17 23:23:47;;;;;;;21.15;9.60;;;-3271.20;79.50;;;;;;5065348;28;20048;-65
2022/12/17 23:26:16;;;;;;;25.27;10.80;;;-3271.20;79.50;;;;;;5064921;28;20124;-64
2022/12/17 23:28:44;;;;;;;21.70;9.52;;;-3271.10;79.40;;;;;;5063578;28;20115;-65
2022/12/17 23:31:12;;;;;;;19.88;10.05;;;-3271.10;79.50;;;;;;5067519;28;20581;-64
2022/12/17 23:33:40;;;;;;;24.63;10.65;;;-3271.10;79.60;;;;;;5066033;28;20059;-66
2022/12/17 23:36:10;;;;;;;20.08;9.18;;;-3271.00;79.50;;;;;;5068344;28;20040;-66
2022/12/17 23:38:37;;;;;;;15.68;7.65;;;-3271.00;79.40;;;;;;5043697;28;20425;-65
2022/12/17 23:41:06;;;;;;;21.80;9.23;;;-3271.00;79.30;;;;;;5058145;28;20056;-65
2022/12/17 23:43:34;;;;;;;20.98;9.60;;;-3271.00;79.30;;;;;;5050251;28;20049;-65
2022/12/17 23:46:02;;;;;;;21.65;9.60;;;-3271.00;79.20;;;;;;5037382;28;20060;-65
2022/12/17 23:48:35;;;;;;;18.92;8.30;;;-3271.00;79.20;;;;;;5052454;28;20476;-64
2022/12/17 23:51:02;;;;;;;19.42;9.68;;;-3271.00;79.30;;;;;;5056747;28;20397;-64
2022/12/17 23:53:32;;;;;;;20.20;9.23;;;-3271.00;79.30;;;;;;5053143;28;20052;-64
2022/12/17 23:56:05;;;;;;;17.93;9.27;;;-3271.00;79.30;;;;;;5048559;28;20048;-64
2022/12/17 23:58:34;;;;;;;20.45;9.00;;;-3271.10;79.20;;;;;;5055071;28;20779;-63
